sensor_id;sensor_type;location;lat;lon;timestamp;temperature;humidity
17697;DHT22;8967;47.984;7.842;2023-07-20T00:02:05;23.30;66.20
17697;DHT22;8967;47.984;7.842;2023-07-20T00:04:33;23.20;65.90
17697;DHT22;8967;47.984;7.842;2023-07-20T00:07:00;23.20;66.10
17697;DHT22;8967;47.984;7.842;2023-07-20T00:09:28;23.20;66.30
17697;DHT22;8967;47.984;7.842;2023-07-20T00:11:55;23.20;66.30
17697;DHT22;8967;47.984;7.842;2023-07-20T00:14:22;23.20;66.40
17697;DHT22;8967;47.984;7.842;2023-07-20T00:16:50;23.20;66.60
17697;DHT22;8967;47.984;7.842;2023-07-20T00:19:22;23.20;66.80
17697;DHT22;8967;47.984;7.842;2023-07-20T00:21:49;23.20;67.20
17697;DHT22;8967;47.984;7.842;2023-07-20T00:24:15;23.20;67.70
17697;DHT22;8967;47.984;7.842;2023-07-20T00:26:44;23.20;68.20
17697;DHT22;8967;47.984;7.842;2023-07-20T00:29:11;23.10;68.40
17697;DHT22;8967;47.984;7.842;2023-07-20T00:31:40;23.10;68.70
17697;DHT22;8967;47.984;7.842;2023-07-20T00:34:07;23.10;68.90
17697;DHT22;8967;47.984;7.842;2023-07-20T00:36:34;23.10;69.10
17697;DHT22;8967;47.984;7.842;2023-07-20T00:39:01;23.10;69.30
17697;DHT22;8967;47.984;7.842;2023-07-20T00:41:28;23.10;69.60
17697;DHT22;8967;47.984;7.842;2023-07-20T00:43:59;23.10;69.80
17697;DHT22;8967;47.984;7.842;2023-07-20T00:46:26;23.00;69.80
17697;DHT22;8967;47.984;7.842;2023-07-20T00:48:53;23.00;69.90
17697;DHT22;8967;47.984;7.842;2023-07-20T00:51:23;23.00;70.00
17697;DHT22;8967;47.984;7.842;2023-07-20T00:53:50;23.00;70.20
17697;DHT22;8967;47.984;7.842;2023-07-20T00:56:19;22.90;70.10
17697;DHT22;8967;47.984;7.842;2023-07-20T00:58:48;22.90;70.40
17697;DHT22;8967;47.984;7.842;2023-07-20T01:01:17;22.90;70.50
17697;DHT22;8967;47.984;7.842;2023-07-20T01:03:43;22.90;70.90
17697;DHT22;8967;47.984;7.842;2023-07-20T01:06:18;22.90;71.20
17697;DHT22;8967;47.984;7.842;2023-07-20T01:08:57;22.90;71.50
17697;DHT22;8967;47.984;7.842;2023-07-20T01:11:33;22.90;70.90
17697;DHT22;8967;47.984;7.842;2023-07-20T01:14:04;22.80;69.80
17697;DHT22;8967;47.984;7.842;2023-07-20T01:16:34;22.80;69.90
17697;DHT22;8967;47.984;7.842;2023-07-20T01:19:03;22.80;69.90
17697;DHT22;8967;47.984;7.842;2023-07-20T01:21:34;22.70;70.00
17697;DHT22;8967;47.984;7.842;2023-07-20T01:27:44;22.70;70.00
17697;DHT22;8967;47.984;7.842;2023-07-20T01:30:25;22.70;70.60
17697;DHT22;8967;47.984;7.842;2023-07-20T01:33:02;22.70;71.40
17697;DHT22;8967;47.984;7.842;2023-07-20T01:35:30;22.70;72.00
17697;DHT22;8967;47.984;7.842;2023-07-20T01:37:58;22.60;72.40
17697;DHT22;8967;47.984;7.842;2023-07-20T01:40:27;22.60;72.60
17697;DHT22;8967;47.984;7.842;2023-07-20T01:42:54;22.60;72.90
17697;DHT22;8967;47.984;7.842;2023-07-20T01:45:20;22.60;72.90
17697;DHT22;8967;47.984;7.842;2023-07-20T01:47:47;22.60;73.00
17697;DHT22;8967;47.984;7.842;2023-07-20T01:50:16;22.50;73.30
17697;DHT22;8967;47.984;7.842;2023-07-20T01:52:43;22.50;73.50
17697;DHT22;8967;47.984;7.842;2023-07-20T01:55:09;22.50;73.80
17697;DHT22;8967;47.984;7.842;2023-07-20T01:57:37;22.50;74.10
17697;DHT22;8967;47.984;7.842;2023-07-20T02:00:05;22.40;74.20
17697;DHT22;8967;47.984;7.842;2023-07-20T02:02:41;22.40;74.50
17697;DHT22;8967;47.984;7.842;2023-07-20T02:05:09;22.40;74.70
17697;DHT22;8967;47.984;7.842;2023-07-20T02:07:37;22.40;74.90
17697;DHT22;8967;47.984;7.842;2023-07-20T02:10:06;22.30;74.80
17697;DHT22;8967;47.984;7.842;2023-07-20T02:12:34;22.30;75.10
17697;DHT22;8967;47.984;7.842;2023-07-20T02:15:02;22.30;75.20
17697;DHT22;8967;47.984;7.842;2023-07-20T02:17:29;22.20;75.50
17697;DHT22;8967;47.984;7.842;2023-07-20T02:19:57;22.20;75.40
17697;DHT22;8967;47.984;7.842;2023-07-20T02:22:26;22.20;75.50
17697;DHT22;8967;47.984;7.842;2023-07-20T02:24:57;22.20;75.60
17697;DHT22;8967;47.984;7.842;2023-07-20T02:27:23;22.10;75.50
17697;DHT22;8967;47.984;7.842;2023-07-20T02:29:50;22.10;75.70
17697;DHT22;8967;47.984;7.842;2023-07-20T02:32:17;22.10;75.70
17697;DHT22;8967;47.984;7.842;2023-07-20T02:34:44;22.00;75.90
17697;DHT22;8967;47.984;7.842;2023-07-20T02:37:11;22.00;75.90
17697;DHT22;8967;47.984;7.842;2023-07-20T02:39:38;22.00;75.90
17697;DHT22;8967;47.984;7.842;2023-07-20T02:42:07;22.00;76.10
17697;DHT22;8967;47.984;7.842;2023-07-20T02:44:34;21.90;76.00
17697;DHT22;8967;47.984;7.842;2023-07-20T02:47:01;21.90;75.90
17697;DHT22;8967;47.984;7.842;2023-07-20T02:49:30;21.90;76.10
17697;DHT22;8967;47.984;7.842;2023-07-20T02:51:57;21.90;76.20
17697;DHT22;8967;47.984;7.842;2023-07-20T02:54:24;21.80;76.20
17697;DHT22;8967;47.984;7.842;2023-07-20T02:56:51;21.80;76.30
17697;DHT22;8967;47.984;7.842;2023-07-20T02:59:19;21.70;76.60
17697;DHT22;8967;47.984;7.842;2023-07-20T03:01:46;21.70;76.70
17697;DHT22;8967;47.984;7.842;2023-07-20T03:04:13;21.70;76.80
17697;DHT22;8967;47.984;7.842;2023-07-20T03:06:40;21.70;76.80
17697;DHT22;8967;47.984;7.842;2023-07-20T03:09:07;21.60;77.20
17697;DHT22;8967;47.984;7.842;2023-07-20T03:11:35;21.60;77.40
17697;DHT22;8967;47.984;7.842;2023-07-20T03:14:02;21.60;77.10
17697;DHT22;8967;47.984;7.842;2023-07-20T03:16:30;21.50;77.10
17697;DHT22;8967;47.984;7.842;2023-07-20T03:19:00;21.50;77.10
17697;DHT22;8967;47.984;7.842;2023-07-20T03:21:27;21.50;77.00
17697;DHT22;8967;47.984;7.842;2023-07-20T03:23:54;21.50;77.10
17697;DHT22;8967;47.984;7.842;2023-07-20T03:26:23;21.40;77.10
17697;DHT22;8967;47.984;7.842;2023-07-20T03:28:53;21.40;77.20
17697;DHT22;8967;47.984;7.842;2023-07-20T03:31:21;21.40;78.00
17697;DHT22;8967;47.984;7.842;2023-07-20T03:33:52;21.30;77.30
17697;DHT22;8967;47.984;7.842;2023-07-20T03:36:19;21.30;77.30
17697;DHT22;8967;47.984;7.842;2023-07-20T03:38:46;21.30;77.40
17697;DHT22;8967;47.984;7.842;2023-07-20T03:41:13;21.30;77.40
17697;DHT22;8967;47.984;7.842;2023-07-20T03:43:42;21.20;77.50
17697;DHT22;8967;47.984;7.842;2023-07-20T03:46:09;21.20;77.60
17697;DHT22;8967;47.984;7.842;2023-07-20T03:48:38;21.10;77.50
17697;DHT22;8967;47.984;7.842;2023-07-20T03:51:06;21.10;77.80
17697;DHT22;8967;47.984;7.842;2023-07-20T03:53:33;21.10;78.00
17697;DHT22;8967;47.984;7.842;2023-07-20T03:56:00;21.10;77.80
17697;DHT22;8967;47.984;7.842;2023-07-20T03:58:27;21.10;77.90
17697;DHT22;8967;47.984;7.842;2023-07-20T04:00:55;21.10;78.00
17697;DHT22;8967;47.984;7.842;2023-07-20T04:03:26;21.00;78.10
17697;DHT22;8967;47.984;7.842;2023-07-20T04:05:54;21.00;77.90
17697;DHT22;8967;47.984;7.842;2023-07-20T04:08:23;21.00;78.10
17697;DHT22;8967;47.984;7.842;2023-07-20T04:10:50;21.00;78.40
17697;DHT22;8967;47.984;7.842;2023-07-20T04:13:17;21.00;78.30
17697;DHT22;8967;47.984;7.842;2023-07-20T04:15:44;21.00;78.50
17697;DHT22;8967;47.984;7.842;2023-07-20T04:18:13;20.90;78.60
17697;DHT22;8967;47.984;7.842;2023-07-20T04:20:40;20.90;78.70
17697;DHT22;8967;47.984;7.842;2023-07-20T04:23:07;20.90;78.70
17697;DHT22;8967;47.984;7.842;2023-07-20T04:25:36;20.90;79.00
17697;DHT22;8967;47.984;7.842;2023-07-20T04:28:06;20.90;78.80
17697;DHT22;8967;47.984;7.842;2023-07-20T04:30:39;20.80;79.00
17697;DHT22;8967;47.984;7.842;2023-07-20T04:33:06;20.80;78.90
17697;DHT22;8967;47.984;7.842;2023-07-20T04:35:48;20.80;78.90
17697;DHT22;8967;47.984;7.842;2023-07-20T04:38:23;20.80;78.80
17697;DHT22;8967;47.984;7.842;2023-07-20T04:40:59;20.80;78.90
17697;DHT22;8967;47.984;7.842;2023-07-20T04:43:29;20.80;79.00
17697;DHT22;8967;47.984;7.842;2023-07-20T04:45:56;20.80;79.10
17697;DHT22;8967;47.984;7.842;2023-07-20T04:48:26;20.80;79.30
17697;DHT22;8967;47.984;7.842;2023-07-20T04:50:55;20.70;79.30
17697;DHT22;8967;47.984;7.842;2023-07-20T04:53:23;20.70;79.70
17697;DHT22;8967;47.984;7.842;2023-07-20T04:55:53;20.80;79.90
17697;DHT22;8967;47.984;7.842;2023-07-20T04:58:24;20.70;80.00
17697;DHT22;8967;47.984;7.842;2023-07-20T05:00:52;20.80;80.10
17697;DHT22;8967;47.984;7.842;2023-07-20T05:03:20;20.80;80.10
17697;DHT22;8967;47.984;7.842;2023-07-20T05:05:49;20.80;80.10
17697;DHT22;8967;47.984;7.842;2023-07-20T05:08:17;20.80;79.80
17697;DHT22;8967;47.984;7.842;2023-07-20T05:10:44;20.80;80.00
17697;DHT22;8967;47.984;7.842;2023-07-20T05:13:11;20.80;79.90
17697;DHT22;8967;47.984;7.842;2023-07-20T05:15:39;20.80;80.00
17697;DHT22;8967;47.984;7.842;2023-07-20T05:18:10;20.80;80.10
17697;DHT22;8967;47.984;7.842;2023-07-20T05:20:39;20.80;80.30
17697;DHT22;8967;47.984;7.842;2023-07-20T05:23:06;20.80;80.40
17697;DHT22;8967;47.984;7.842;2023-07-20T05:25:33;20.80;80.30
17697;DHT22;8967;47.984;7.842;2023-07-20T05:28:00;20.80;80.40
17697;DHT22;8967;47.984;7.842;2023-07-20T05:30:26;20.80;80.80
17697;DHT22;8967;47.984;7.842;2023-07-20T05:32:56;20.80;81.10
17697;DHT22;8967;47.984;7.842;2023-07-20T05:35:23;20.80;81.10
17697;DHT22;8967;47.984;7.842;2023-07-20T05:37:50;20.80;81.10
17697;DHT22;8967;47.984;7.842;2023-07-20T05:40:17;20.80;81.30
17697;DHT22;8967;47.984;7.842;2023-07-20T05:42:44;20.80;81.40
17697;DHT22;8967;47.984;7.842;2023-07-20T05:45:14;20.80;81.80
17697;DHT22;8967;47.984;7.842;2023-07-20T05:47:41;20.80;82.10
17697;DHT22;8967;47.984;7.842;2023-07-20T05:50:12;20.80;82.10
17697;DHT22;8967;47.984;7.842;2023-07-20T05:52:39;20.80;82.40
17697;DHT22;8967;47.984;7.842;2023-07-20T05:55:07;20.90;82.60
17697;DHT22;8967;47.984;7.842;2023-07-20T05:57:34;20.90;82.60
17697;DHT22;8967;47.984;7.842;2023-07-20T06:00:02;20.90;82.60
17697;DHT22;8967;47.984;7.842;2023-07-20T06:02:37;20.90;82.70
17697;DHT22;8967;47.984;7.842;2023-07-20T06:05:08;20.90;82.90
17697;DHT22;8967;47.984;7.842;2023-07-20T06:07:38;21.00;82.90
17697;DHT22;8967;47.984;7.842;2023-07-20T06:10:06;21.00;82.70
17697;DHT22;8967;47.984;7.842;2023-07-20T06:12:33;21.00;82.60
17697;DHT22;8967;47.984;7.842;2023-07-20T06:15:03;21.10;82.30
17697;DHT22;8967;47.984;7.842;2023-07-20T06:17:31;21.10;82.50
17697;DHT22;8967;47.984;7.842;2023-07-20T06:19:58;21.10;83.00
17697;DHT22;8967;47.984;7.842;2023-07-20T06:22:25;21.20;82.50
17697;DHT22;8967;47.984;7.842;2023-07-20T06:24:53;21.20;82.20
17697;DHT22;8967;47.984;7.842;2023-07-20T06:27:20;21.20;82.20
17697;DHT22;8967;47.984;7.842;2023-07-20T06:29:47;21.30;82.30
17697;DHT22;8967;47.984;7.842;2023-07-20T06:32:14;21.30;82.00
17697;DHT22;8967;47.984;7.842;2023-07-20T06:34:41;21.30;82.10
17697;DHT22;8967;47.984;7.842;2023-07-20T06:37:08;21.30;82.20
17697;DHT22;8967;47.984;7.842;2023-07-20T06:39:35;21.40;82.20
17697;DHT22;8967;47.984;7.842;2023-07-20T06:42:03;21.50;82.40
17697;DHT22;8967;47.984;7.842;2023-07-20T06:44:31;21.50;82.20
17697;DHT22;8967;47.984;7.842;2023-07-20T06:46:58;21.60;81.80
17697;DHT22;8967;47.984;7.842;2023-07-20T06:49:26;21.60;81.70
17697;DHT22;8967;47.984;7.842;2023-07-20T06:51:55;21.60;79.80
17697;DHT22;8967;47.984;7.842;2023-07-20T06:54:22;21.70;80.10
17697;DHT22;8967;47.984;7.842;2023-07-20T06:56:49;21.70;80.00
17697;DHT22;8967;47.984;7.842;2023-07-20T06:59:17;21.70;78.80
17697;DHT22;8967;47.984;7.842;2023-07-20T07:01:44;21.80;76.60
17697;DHT22;8967;47.984;7.842;2023-07-20T07:04:11;21.80;77.10
17697;DHT22;8967;47.984;7.842;2023-07-20T07:06:37;21.80;76.70
17697;DHT22;8967;47.984;7.842;2023-07-20T07:09:04;21.80;76.10
17697;DHT22;8967;47.984;7.842;2023-07-20T07:11:31;21.90;76.10
17697;DHT22;8967;47.984;7.842;2023-07-20T07:13:58;21.90;76.00
17697;DHT22;8967;47.984;7.842;2023-07-20T07:16:26;22.00;75.90
17697;DHT22;8967;47.984;7.842;2023-07-20T07:18:56;22.00;75.40
17697;DHT22;8967;47.984;7.842;2023-07-20T07:21:22;22.10;75.50
17697;DHT22;8967;47.984;7.842;2023-07-20T07:23:51;22.10;75.50
17697;DHT22;8967;47.984;7.842;2023-07-20T07:26:19;22.20;75.60
17697;DHT22;8967;47.984;7.842;2023-07-20T07:28:49;22.20;75.30
17697;DHT22;8967;47.984;7.842;2023-07-20T07:31:16;22.20;75.00
17697;DHT22;8967;47.984;7.842;2023-07-20T07:33:44;22.30;75.10
17697;DHT22;8967;47.984;7.842;2023-07-20T07:36:11;22.30;75.30
17697;DHT22;8967;47.984;7.842;2023-07-20T07:38:38;22.30;74.30
17697;DHT22;8967;47.984;7.842;2023-07-20T07:41:05;22.40;74.40
17697;DHT22;8967;47.984;7.842;2023-07-20T07:43:34;22.40;74.30
17697;DHT22;8967;47.984;7.842;2023-07-20T07:46:01;22.40;73.40
17697;DHT22;8967;47.984;7.842;2023-07-20T07:48:28;22.50;73.70
17697;DHT22;8967;47.984;7.842;2023-07-20T07:50:56;22.40;73.10
17697;DHT22;8967;47.984;7.842;2023-07-20T07:53:23;22.50;73.20
17697;DHT22;8967;47.984;7.842;2023-07-20T07:55:51;22.40;72.60
17697;DHT22;8967;47.984;7.842;2023-07-20T07:58:18;22.50;72.80
17697;DHT22;8967;47.984;7.842;2023-07-20T08:00:45;22.50;72.50
17697;DHT22;8967;47.984;7.842;2023-07-20T08:03:13;22.50;72.30
17697;DHT22;8967;47.984;7.842;2023-07-20T08:05:40;22.50;73.00
17697;DHT22;8967;47.984;7.842;2023-07-20T08:08:08;22.60;72.10
17697;DHT22;8967;47.984;7.842;2023-07-20T08:10:35;22.60;72.70
17697;DHT22;8967;47.984;7.842;2023-07-20T08:13:02;22.70;72.00
17697;DHT22;8967;47.984;7.842;2023-07-20T08:15:31;22.70;71.70
17697;DHT22;8967;47.984;7.842;2023-07-20T08:17:58;22.80;71.30
17697;DHT22;8967;47.984;7.842;2023-07-20T08:20:25;22.80;70.70
17697;DHT22;8967;47.984;7.842;2023-07-20T08:22:52;22.90;70.70
17697;DHT22;8967;47.984;7.842;2023-07-20T08:25:21;22.90;70.50
17697;DHT22;8967;47.984;7.842;2023-07-20T08:27:48;22.90;70.70
17697;DHT22;8967;47.984;7.842;2023-07-20T08:30:15;23.00;70.90
17697;DHT22;8967;47.984;7.842;2023-07-20T08:32:41;23.00;70.50
17697;DHT22;8967;47.984;7.842;2023-07-20T08:35:09;23.00;70.30
17697;DHT22;8967;47.984;7.842;2023-07-20T08:37:35;23.00;70.70
17697;DHT22;8967;47.984;7.842;2023-07-20T08:40:06;23.00;70.90
17697;DHT22;8967;47.984;7.842;2023-07-20T08:42:36;23.10;71.00
17697;DHT22;8967;47.984;7.842;2023-07-20T08:45:06;23.10;70.50
17697;DHT22;8967;47.984;7.842;2023-07-20T08:47:34;23.10;70.50
17697;DHT22;8967;47.984;7.842;2023-07-20T08:50:05;23.10;70.20
17697;DHT22;8967;47.984;7.842;2023-07-20T08:52:35;23.10;70.30
17697;DHT22;8967;47.984;7.842;2023-07-20T08:55:04;23.10;70.00
17697;DHT22;8967;47.984;7.842;2023-07-20T08:57:36;23.10;70.00
17697;DHT22;8967;47.984;7.842;2023-07-20T09:00:05;23.10;69.40
17697;DHT22;8967;47.984;7.842;2023-07-20T09:02:37;23.20;69.30
17697;DHT22;8967;47.984;7.842;2023-07-20T09:05:07;23.20;69.30
17697;DHT22;8967;47.984;7.842;2023-07-20T09:07:35;23.20;69.00
17697;DHT22;8967;47.984;7.842;2023-07-20T09:10:03;23.20;69.00
17697;DHT22;8967;47.984;7.842;2023-07-20T09:12:31;23.20;68.70
17697;DHT22;8967;47.984;7.842;2023-07-20T09:15:07;23.20;68.40
17697;DHT22;8967;47.984;7.842;2023-07-20T09:17:34;23.30;68.80
17697;DHT22;8967;47.984;7.842;2023-07-20T09:20:02;23.30;68.50
17697;DHT22;8967;47.984;7.842;2023-07-20T09:22:33;23.30;68.60
17697;DHT22;8967;47.984;7.842;2023-07-20T09:25:06;23.30;68.80
17697;DHT22;8967;47.984;7.842;2023-07-20T09:27:36;23.40;68.90
17697;DHT22;8967;47.984;7.842;2023-07-20T09:30:07;23.40;69.00
17697;DHT22;8967;47.984;7.842;2023-07-20T09:32:39;23.40;68.90
17697;DHT22;8967;47.984;7.842;2023-07-20T09:35:13;23.50;68.80
17697;DHT22;8967;47.984;7.842;2023-07-20T09:37:46;23.50;68.40
17697;DHT22;8967;47.984;7.842;2023-07-20T09:40:15;23.50;68.00
17697;DHT22;8967;47.984;7.842;2023-07-20T09:42:44;23.50;67.60
17697;DHT22;8967;47.984;7.842;2023-07-20T09:45:12;23.50;67.40
17697;DHT22;8967;47.984;7.842;2023-07-20T09:47:39;23.50;67.30
17697;DHT22;8967;47.984;7.842;2023-07-20T09:50:07;23.60;66.80
17697;DHT22;8967;47.984;7.842;2023-07-20T09:52:38;23.50;66.50
17697;DHT22;8967;47.984;7.842;2023-07-20T09:55:09;23.60;66.80
17697;DHT22;8967;47.984;7.842;2023-07-20T09:57:39;23.60;67.10
17697;DHT22;8967;47.984;7.842;2023-07-20T10:00:07;23.60;67.20
17697;DHT22;8967;47.984;7.842;2023-07-20T10:02:42;23.70;66.70
17697;DHT22;8967;47.984;7.842;2023-07-20T10:05:12;23.70;66.80
17697;DHT22;8967;47.984;7.842;2023-07-20T10:07:43;23.70;66.50
17697;DHT22;8967;47.984;7.842;2023-07-20T10:10:11;23.70;66.80
17697;DHT22;8967;47.984;7.842;2023-07-20T10:12:41;23.80;66.20
17697;DHT22;8967;47.984;7.842;2023-07-20T10:15:13;23.80;66.50
17697;DHT22;8967;47.984;7.842;2023-07-20T10:17:51;23.80;66.80
17697;DHT22;8967;47.984;7.842;2023-07-20T10:20:20;23.80;67.00
17697;DHT22;8967;47.984;7.842;2023-07-20T10:22:48;23.90;67.50
17697;DHT22;8967;47.984;7.842;2023-07-20T10:25:16;23.80;66.80
17697;DHT22;8967;47.984;7.842;2023-07-20T10:27:45;23.90;66.50
17697;DHT22;8967;47.984;7.842;2023-07-20T10:30:13;23.90;66.60
17697;DHT22;8967;47.984;7.842;2023-07-20T10:32:44;23.90;66.40
17697;DHT22;8967;47.984;7.842;2023-07-20T10:35:13;23.90;66.20
17697;DHT22;8967;47.984;7.842;2023-07-20T10:37:47;23.90;66.00
17697;DHT22;8967;47.984;7.842;2023-07-20T10:40:33;24.00;65.60
17697;DHT22;8967;47.984;7.842;2023-07-20T10:43:02;24.00;65.10
17697;DHT22;8967;47.984;7.842;2023-07-20T10:45:39;24.00;65.30
17697;DHT22;8967;47.984;7.842;2023-07-20T10:48:13;24.00;65.30
17697;DHT22;8967;47.984;7.842;2023-07-20T10:50:41;24.00;65.10
17697;DHT22;8967;47.984;7.842;2023-07-20T10:53:12;24.00;65.00
17697;DHT22;8967;47.984;7.842;2023-07-20T10:55:39;24.00;65.00
17697;DHT22;8967;47.984;7.842;2023-07-20T10:58:13;24.00;65.20
17697;DHT22;8967;47.984;7.842;2023-07-20T11:00:57;24.00;65.50
17697;DHT22;8967;47.984;7.842;2023-07-20T11:03:31;24.10;65.30
17697;DHT22;8967;47.984;7.842;2023-07-20T11:05:59;24.10;65.10
17697;DHT22;8967;47.984;7.842;2023-07-20T11:08:41;24.20;65.00
17697;DHT22;8967;47.984;7.842;2023-07-20T11:11:21;24.20;65.50
17697;DHT22;8967;47.984;7.842;2023-07-20T11:13:56;24.20;64.90
17697;DHT22;8967;47.984;7.842;2023-07-20T11:16:37;24.30;64.80
17697;DHT22;8967;47.984;7.842;2023-07-20T11:19:14;24.30;64.50
17697;DHT22;8967;47.984;7.842;2023-07-20T11:21:45;24.40;64.40
17697;DHT22;8967;47.984;7.842;2023-07-20T11:24:12;24.40;64.10
17697;DHT22;8967;47.984;7.842;2023-07-20T11:26:43;24.40;64.20
17697;DHT22;8967;47.984;7.842;2023-07-20T11:29:13;24.40;64.00
17697;DHT22;8967;47.984;7.842;2023-07-20T11:31:41;24.40;64.00
17697;DHT22;8967;47.984;7.842;2023-07-20T11:34:12;24.30;63.70
17697;DHT22;8967;47.984;7.842;2023-07-20T11:36:40;24.40;64.10
17697;DHT22;8967;47.984;7.842;2023-07-20T11:39:09;24.40;64.10
17697;DHT22;8967;47.984;7.842;2023-07-20T11:41:36;24.40;64.50
17697;DHT22;8967;47.984;7.842;2023-07-20T11:44:04;24.40;64.10
17697;DHT22;8967;47.984;7.842;2023-07-20T11:46:33;24.40;63.90
17697;DHT22;8967;47.984;7.842;2023-07-20T11:49:00;24.40;63.20
17697;DHT22;8967;47.984;7.842;2023-07-20T11:51:31;24.40;63.20
17697;DHT22;8967;47.984;7.842;2023-07-20T11:53:58;24.40;63.30
17697;DHT22;8967;47.984;7.842;2023-07-20T11:56:26;24.40;63.10
17697;DHT22;8967;47.984;7.842;2023-07-20T11:58:55;24.40;63.10
17697;DHT22;8967;47.984;7.842;2023-07-20T12:01:25;24.40;63.00
17697;DHT22;8967;47.984;7.842;2023-07-20T12:03:55;24.40;62.90
17697;DHT22;8967;47.984;7.842;2023-07-20T12:06:23;24.40;63.20
17697;DHT22;8967;47.984;7.842;2023-07-20T12:08:54;24.40;63.30
17697;DHT22;8967;47.984;7.842;2023-07-20T12:11:32;24.40;62.80
17697;DHT22;8967;47.984;7.842;2023-07-20T12:13:59;24.40;63.00
17697;DHT22;8967;47.984;7.842;2023-07-20T12:16:27;24.40;62.70
17697;DHT22;8967;47.984;7.842;2023-07-20T12:19:00;24.40;62.20
17697;DHT22;8967;47.984;7.842;2023-07-20T12:21:28;24.40;62.00
17697;DHT22;8967;47.984;7.842;2023-07-20T12:23:58;24.50;62.10
17697;DHT22;8967;47.984;7.842;2023-07-20T12:26:26;24.50;61.50
17697;DHT22;8967;47.984;7.842;2023-07-20T12:28:55;24.50;61.70
17697;DHT22;8967;47.984;7.842;2023-07-20T12:31:23;24.60;62.40
17697;DHT22;8967;47.984;7.842;2023-07-20T12:33:50;24.50;62.00
17697;DHT22;8967;47.984;7.842;2023-07-20T12:36:17;24.60;61.90
17697;DHT22;8967;47.984;7.842;2023-07-20T12:38:44;24.50;61.60
17697;DHT22;8967;47.984;7.842;2023-07-20T12:41:14;24.60;61.60
17697;DHT22;8967;47.984;7.842;2023-07-20T12:44:07;24.60;61.60
17697;DHT22;8967;47.984;7.842;2023-07-20T12:46:33;24.60;61.70
17697;DHT22;8967;47.984;7.842;2023-07-20T12:49:05;24.60;62.00
17697;DHT22;8967;47.984;7.842;2023-07-20T12:51:31;24.60;61.70
17697;DHT22;8967;47.984;7.842;2023-07-20T12:53:58;24.50;60.70
17697;DHT22;8967;47.984;7.842;2023-07-20T12:56:27;24.50;60.90
17697;DHT22;8967;47.984;7.842;2023-07-20T12:58:56;24.50;61.00
17697;DHT22;8967;47.984;7.842;2023-07-20T13:01:23;24.50;61.00
17697;DHT22;8967;47.984;7.842;2023-07-20T13:03:50;24.50;61.10
17697;DHT22;8967;47.984;7.842;2023-07-20T13:06:17;24.50;60.90
17697;DHT22;8967;47.984;7.842;2023-07-20T13:08:44;24.50;60.80
17697;DHT22;8967;47.984;7.842;2023-07-20T13:11:11;24.50;61.20
17697;DHT22;8967;47.984;7.842;2023-07-20T13:13:39;24.50;61.70
17697;DHT22;8967;47.984;7.842;2023-07-20T13:16:06;24.50;61.70
17697;DHT22;8967;47.984;7.842;2023-07-20T13:18:32;24.60;62.10
17697;DHT22;8967;47.984;7.842;2023-07-20T13:20:59;24.60;62.10
17697;DHT22;8967;47.984;7.842;2023-07-20T13:23:29;24.70;61.90
17697;DHT22;8967;47.984;7.842;2023-07-20T13:25:55;24.60;61.50
17697;DHT22;8967;47.984;7.842;2023-07-20T13:28:25;24.70;61.50
17697;DHT22;8967;47.984;7.842;2023-07-20T13:30:53;24.70;61.30
17697;DHT22;8967;47.984;7.842;2023-07-20T13:33:20;24.70;61.10
17697;DHT22;8967;47.984;7.842;2023-07-20T13:35:46;24.80;61.00
17697;DHT22;8967;47.984;7.842;2023-07-20T13:38:13;24.80;61.00
17697;DHT22;8967;47.984;7.842;2023-07-20T13:40:41;24.70;60.90
17697;DHT22;8967;47.984;7.842;2023-07-20T13:43:08;24.80;61.60
17697;DHT22;8967;47.984;7.842;2023-07-20T13:45:35;24.70;60.70
17697;DHT22;8967;47.984;7.842;2023-07-20T13:48:04;24.70;60.60
17697;DHT22;8967;47.984;7.842;2023-07-20T13:50:31;24.80;60.50
17697;DHT22;8967;47.984;7.842;2023-07-20T13:52:58;24.80;61.00
17697;DHT22;8967;47.984;7.842;2023-07-20T13:55:24;24.80;60.70
17697;DHT22;8967;47.984;7.842;2023-07-20T13:57:51;24.90;60.70
17697;DHT22;8967;47.984;7.842;2023-07-20T14:00:18;24.90;60.60
17697;DHT22;8967;47.984;7.842;2023-07-20T14:02:45;24.90;60.70
17697;DHT22;8967;47.984;7.842;2023-07-20T14:05:13;24.90;61.10
17697;DHT22;8967;47.984;7.842;2023-07-20T14:07:44;24.90;60.70
17697;DHT22;8967;47.984;7.842;2023-07-20T14:10:11;25.00;61.00
17697;DHT22;8967;47.984;7.842;2023-07-20T14:12:37;24.90;60.80
17697;DHT22;8967;47.984;7.842;2023-07-20T14:15:05;24.90;60.70
17697;DHT22;8967;47.984;7.842;2023-07-20T14:17:32;24.90;60.70
17697;DHT22;8967;47.984;7.842;2023-07-20T14:19:59;24.90;60.60
17697;DHT22;8967;47.984;7.842;2023-07-20T14:22:27;24.90;60.40
17697;DHT22;8967;47.984;7.842;2023-07-20T14:24:56;24.90;60.20
17697;DHT22;8967;47.984;7.842;2023-07-20T14:27:24;25.00;60.10
17697;DHT22;8967;47.984;7.842;2023-07-20T14:29:51;25.00;60.00
17697;DHT22;8967;47.984;7.842;2023-07-20T14:32:18;25.00;60.00
17697;DHT22;8967;47.984;7.842;2023-07-20T14:34:45;25.00;60.00
17697;DHT22;8967;47.984;7.842;2023-07-20T14:37:12;25.00;59.90
17697;DHT22;8967;47.984;7.842;2023-07-20T14:39:40;25.00;59.90
17697;DHT22;8967;47.984;7.842;2023-07-20T14:42:10;25.00;59.60
17697;DHT22;8967;47.984;7.842;2023-07-20T14:44:37;25.00;59.60
17697;DHT22;8967;47.984;7.842;2023-07-20T14:47:04;25.00;59.80
17697;DHT22;8967;47.984;7.842;2023-07-20T14:49:33;25.00;59.60
17697;DHT22;8967;47.984;7.842;2023-07-20T14:52:02;25.00;59.80
17697;DHT22;8967;47.984;7.842;2023-07-20T14:54:29;25.00;59.80
17697;DHT22;8967;47.984;7.842;2023-07-20T14:57:00;25.00;60.00
17697;DHT22;8967;47.984;7.842;2023-07-20T14:59:28;25.00;60.10
17697;DHT22;8967;47.984;7.842;2023-07-20T15:01:55;25.00;60.10
17697;DHT22;8967;47.984;7.842;2023-07-20T15:04:22;25.00;60.20
17697;DHT22;8967;47.984;7.842;2023-07-20T15:06:48;25.00;60.20
17697;DHT22;8967;47.984;7.842;2023-07-20T15:09:17;25.00;60.20
17697;DHT22;8967;47.984;7.842;2023-07-20T15:11:44;25.10;60.30
17697;DHT22;8967;47.984;7.842;2023-07-20T15:14:15;25.00;59.50
17697;DHT22;8967;47.984;7.842;2023-07-20T15:16:44;25.00;59.90
17697;DHT22;8967;47.984;7.842;2023-07-20T15:19:11;25.00;59.80
17697;DHT22;8967;47.984;7.842;2023-07-20T15:21:39;25.10;59.90
17697;DHT22;8967;47.984;7.842;2023-07-20T15:24:06;25.10;60.00
17697;DHT22;8967;47.984;7.842;2023-07-20T15:26:33;25.10;59.70
17697;DHT22;8967;47.984;7.842;2023-07-20T15:29:00;25.10;59.50
17697;DHT22;8967;47.984;7.842;2023-07-20T15:31:28;25.10;59.50
17697;DHT22;8967;47.984;7.842;2023-07-20T15:33:55;25.10;59.40
17697;DHT22;8967;47.984;7.842;2023-07-20T15:36:22;25.10;59.40
17697;DHT22;8967;47.984;7.842;2023-07-20T15:38:49;25.10;59.50
17697;DHT22;8967;47.984;7.842;2023-07-20T15:41:16;25.10;59.30
17697;DHT22;8967;47.984;7.842;2023-07-20T15:43:43;25.00;59.00
17697;DHT22;8967;47.984;7.842;2023-07-20T15:46:44;25.00;59.20
17697;DHT22;8967;47.984;7.842;2023-07-20T15:49:11;25.00;59.20
17697;DHT22;8967;47.984;7.842;2023-07-20T15:51:38;25.10;58.90
17697;DHT22;8967;47.984;7.842;2023-07-20T15:54:10;25.00;58.90
17697;DHT22;8967;47.984;7.842;2023-07-20T15:56:40;25.00;59.10
17697;DHT22;8967;47.984;7.842;2023-07-20T15:59:09;25.00;59.40